Time;durP1;ratioP1;P1;durP2;ratioP2;P2;SDS_P1;SDS_P2;PMS_P1;PMS_P2;Temp;Humidity;BMP_temperature;BMP_pressure;BME280_temperature;BME280_humidity;BME280_pressure;Samples;Min_cycle;Max_cycle;Signal;HPM_P1;HPM_P2
2023/09/20 00:02:12;;;;;;;6.07;3.17;;;;;;;10.34;100.00;93983.84;5067685;28;20048;-58
2023/09/20 00:04:40;;;;;;;6.22;3.40;;;;;;;10.32;100.00;93978.00;5067599;28;20044;-57
2023/09/20 00:07:07;;;;;;;6.32;3.25;;;;;;;10.30;100.00;93982.34;5067969;28;20049;-58
2023/09/20 00:09:34;;;;;;;5.50;3.47;;;;;;;10.31;100.00;93989.38;5067614;28;20051;-58
2023/09/20 00:12:01;;;;;;;6.13;3.13;;;;;;;10.32;100.00;93988.19;5087704;28;20803;-58
2023/09/20 00:14:29;;;;;;;5.75;2.90;;;;;;;10.18;100.00;93986.38;5088078;28;20046;-58
2023/09/20 00:16:57;;;;;;;6.32;3.10;;;;;;;10.19;100.00;93988.69;5086331;28;20052;-58
2023/09/20 00:19:24;;;;;;;6.70;2.75;;;;;;;10.19;100.00;93980.47;5086798;28;20499;-58
2023/09/20 00:21:51;;;;;;;4.70;2.90;;;;;;;10.10;100.00;93972.00;5087762;28;20080;-58
2023/09/20 00:24:17;;;;;;;5.23;3.10;;;;;;;10.14;100.00;93971.91;5084704;28;20044;-57
2023/09/20 00:26:44;;;;;;;5.03;2.60;;;;;;;10.15;100.00;93976.22;5071547;28;20548;-58
2023/09/20 00:29:11;;;;;;;5.15;3.08;;;;;;;10.15;100.00;93971.53;5087205;28;20040;-58
2023/09/20 00:31:38;;;;;;;5.25;2.70;;;;;;;10.05;100.00;93975.19;5086825;28;20043;-58
2023/09/20 00:34:05;;;;;;;5.18;2.88;;;;;;;9.98;100.00;93975.28;5088405;28;20085;-58
2023/09/20 00:36:31;;;;;;;6.53;3.13;;;;;;;9.86;100.00;93979.31;5087781;28;20499;-57
2023/09/20 00:39:00;;;;;;;9.38;5.28;;;;;;;9.78;100.00;93970.41;5087537;28;20036;-59
2023/09/20 00:41:27;;;;;;;8.63;3.80;;;;;;;9.76;100.00;93969.28;5087686;28;20044;-59
2023/09/20 00:43:54;;;;;;;7.68;3.42;;;;;;;9.79;100.00;93960.97;5087665;28;20631;-57
2023/09/20 00:46:21;;;;;;;6.78;3.38;;;;;;;9.87;100.00;93963.66;5087648;28;20047;-58
2023/09/20 00:48:51;;;;;;;5.60;3.20;;;;;;;9.89;100.00;93955.78;5087726;28;20535;-58
2023/09/20 00:51:21;;;;;;;5.20;3.33;;;;;;;9.88;100.00;93952.28;5090516;28;20081;-58
2023/09/20 00:53:52;;;;;;;6.22;3.70;;;;;;;9.94;100.00;93950.63;5091433;28;20040;-58
2023/09/20 00:56:21;;;;;;;5.78;3.60;;;;;;;9.95;100.00;93945.94;5091659;28;20036;-57
2023/09/20 00:58:51;;;;;;;5.72;3.50;;;;;;;9.83;100.00;93949.22;5090964;28;20047;-58
2023/09/20 01:01:18;;;;;;;5.73;3.43;;;;;;;9.59;100.00;93947.09;5090049;28;20040;-57
2023/09/20 01:03:47;;;;;;;5.85;3.40;;;;;;;9.59;100.00;93958.06;5091208;28;20048;-57
2023/09/20 01:06:15;;;;;;;6.47;3.58;;;;;;;9.62;100.00;93952.97;5091281;28;20047;-58
2023/09/20 01:08:42;;;;;;;7.53;3.30;;;;;;;9.62;100.00;93942.81;5090217;28;20036;-58
2023/09/20 01:11:09;;;;;;;7.32;3.60;;;;;;;9.60;100.00;93945.94;5091324;28;20040;-58
2023/09/20 01:13:38;;;;;;;6.33;3.63;;;;;;;9.56;100.00;93944.44;5090459;28;20039;-58
2023/09/20 01:16:05;;;;;;;7.57;3.50;;;;;;;9.54;100.00;93944.06;5091059;28;20040;-58
2023/09/20 01:18:32;;;;;;;5.72;3.50;;;;;;;9.56;100.00;93945.19;5090841;28;20039;-58
2023/09/20 01:20:58;;;;;;;5.43;3.10;;;;;;;9.57;100.00;93946.75;5090571;28;20374;-57
2023/09/20 01:23:26;;;;;;;6.38;3.05;;;;;;;9.63;100.00;93938.09;5083751;28;20036;-58
2023/09/20 01:25:56;;;;;;;5.67;3.10;;;;;;;9.67;100.00;93947.81;5083035;28;20070;-58
2023/09/20 01:28:25;;;;;;;6.70;3.30;;;;;;;9.71;100.00;93945.03;5090044;28;20028;-58
2023/09/20 01:30:52;;;;;;;7.80;3.60;;;;;;;9.62;100.00;93947.47;5090245;28;20462;-58
2023/09/20 01:33:18;;;;;;;8.10;4.05;;;;;;;9.32;100.00;93957.19;5091158;28;20524;-58
2023/09/20 01:35:47;;;;;;;5.65;3.67;;;;;;;9.38;100.00;93955.56;5088789;28;20412;-58
2023/09/20 01:38:14;;;;;;;5.53;3.10;;;;;;;9.45;100.00;93952.75;5090264;28;20386;-57
2023/09/20 01:40:41;;;;;;;8.50;3.90;;;;;;;9.53;100.00;93954.22;5090066;28;20036;-58
2023/09/20 01:43:08;;;;;;;6.65;3.80;;;;;;;9.55;100.00;93943.63;5090408;28;20040;-58
2023/09/20 01:45:36;;;;;;;6.63;3.47;;;;;;;9.53;100.00;93937.78;5089800;28;20408;-58
2023/09/20 01:48:06;;;;;;;6.70;3.60;;;;;;;9.54;100.00;93938.59;5090792;28;20044;-58
2023/09/20 01:50:33;;;;;;;6.40;3.47;;;;;;;9.53;100.00;93937.78;5089937;28;20044;-58
2023/09/20 01:53:05;;;;;;;6.60;3.30;;;;;;;9.52;100.00;93933.50;5089505;28;20443;-58
2023/09/20 01:55:31;;;;;;;6.22;2.90;;;;;;;9.47;100.00;93933.94;5090020;28;20039;-57
2023/09/20 01:58:05;;;;;;;5.85;3.38;;;;;;;9.49;100.00;93931.56;5089735;28;20396;-59
2023/09/20 02:00:39;;;;;;;10.93;3.80;;;;;;;9.45;100.00;93930.06;5089828;28;20507;-58
2023/09/20 02:03:14;;;;;;;5.60;3.40;;;;;;;9.44;100.00;93910.13;5089729;28;20791;-58
2023/09/20 02:05:41;;;;;;;7.10;3.45;;;;;;;9.43;100.00;93916.00;5089724;28;20046;-58
2023/09/20 02:08:08;;;;;;;6.53;3.63;;;;;;;9.35;100.00;93920.78;5090054;28;20040;-58
2023/09/20 02:10:39;;;;;;;6.35;3.40;;;;;;;9.27;100.00;93917.31;5089388;28;20449;-58
2023/09/20 02:13:07;;;;;;;7.00;3.75;;;;;;;9.25;100.00;93927.13;5090314;28;20061;-58
2023/09/20 02:15:35;;;;;;;6.63;3.40;;;;;;;9.20;100.00;93920.91;5089803;28;20070;-59
2023/09/20 02:18:05;;;;;;;6.45;3.40;;;;;;;9.21;100.00;93913.47;5089191;28;20611;-58
2023/09/20 02:20:39;;;;;;;7.28;3.35;;;;;;;9.25;100.00;93916.94;5089310;28;20408;-58
2023/09/20 02:23:12;;;;;;;6.40;3.45;;;;;;;9.23;100.00;93913.84;5089176;28;20732;-58
2023/09/20 02:25:40;;;;;;;5.97;3.42;;;;;;;9.24;100.00;93915.41;5074618;28;20048;-58
2023/09/20 02:28:08;;;;;;;6.17;3.40;;;;;;;9.25;100.00;93918.94;5080995;28;20066;-58
2023/09/20 02:30:38;;;;;;;7.40;3.40;;;;;;;9.27;100.00;93906.38;5089027;28;20036;-59
2023/09/20 02:33:07;;;;;;;6.00;2.95;;;;;;;9.25;100.00;93916.19;5089113;28;20405;-59
2023/09/20 02:35:36;;;;;;;6.22;3.80;;;;;;;9.22;100.00;93909.56;5089301;28;20035;-58
2023/09/20 02:38:05;;;;;;;7.63;4.05;;;;;;;9.16;100.00;93905.72;5088698;28;20192;-59
2023/09/20 02:40:35;;;;;;;8.10;3.73;;;;;;;9.14;100.00;93902.63;5089356;28;20047;-58
2023/09/20 02:43:03;;;;;;;7.15;3.78;;;;;;;9.14;100.00;93902.63;5088581;28;22019;-58
2023/09/20 02:45:33;;;;;;;7.15;3.65;;;;;;;9.06;100.00;93892.91;5089303;28;20048;-58
2023/09/20 02:48:06;;;;;;;5.75;3.50;;;;;;;9.08;100.00;93899.53;5089229;28;20112;-59
2023/09/20 02:50:34;;;;;;;6.78;4.07;;;;;;;9.09;100.00;93901.06;5088984;28;20484;-59
2023/09/20 02:53:01;;;;;;;7.17;3.90;;;;;;;9.07;100.00;93894.47;5075189;28;20036;-59
2023/09/20 02:55:31;;;;;;;8.27;3.85;;;;;;;9.05;100.00;93894.84;5089343;28;20036;-59
2023/09/20 02:57:58;;;;;;;5.82;3.60;;;;;;;9.03;100.00;93899.97;5074837;28;20040;-58
2023/09/20 03:00:31;;;;;;;5.90;3.47;;;;;;;9.07;100.00;93891.72;5088558;28;20044;-59
2023/09/20 03:03:01;;;;;;;7.68;3.75;;;;;;;9.05;100.00;93894.09;5089028;28;20096;-59
2023/09/20 03:05:30;;;;;;;9.67;3.83;;;;;;;9.03;100.00;93891.75;5087691;28;20510;-59
2023/09/20 03:07:57;;;;;;;6.60;3.95;;;;;;;9.02;100.00;93890.22;5088302;28;20040;-59
2023/09/20 03:10:25;;;;;;;14.48;4.10;;;;;;;8.99;100.00;93888.28;5088720;28;20048;-58
2023/09/20 03:12:55;;;;;;;9.07;4.20;;;;;;;8.95;100.00;93891.06;5087064;28;20073;-59
2023/09/20 03:15:25;;;;;;;6.93;4.15;;;;;;;8.95;100.00;93887.53;5088882;28;20412;-59
2023/09/20 03:17:54;;;;;;;8.10;4.30;;;;;;;8.90;100.00;93886.00;5088311;28;20047;-58
2023/09/20 03:20:23;;;;;;;7.35;3.85;;;;;;;8.86;100.00;93887.25;5088812;28;20048;-58
2023/09/20 03:22:53;;;;;;;6.47;3.97;;;;;;;8.88;100.00;93885.66;5087106;28;20043;-58
2023/09/20 03:25:21;;;;;;;7.78;3.90;;;;;;;8.89;100.00;93880.94;5077564;28;20036;-58
2023/09/20 03:27:49;;;;;;;9.13;4.28;;;;;;;8.81;100.00;93880.22;5076353;28;20056;-58
2023/09/20 03:30:17;;;;;;;7.23;3.87;;;;;;;8.85;100.00;93882.94;5088404;28;20040;-58
2023/09/20 03:32:44;;;;;;;9.02;3.92;;;;;;;8.83;100.00;93888.81;5087912;28;20879;-58
2023/09/20 03:35:15;;;;;;;7.10;4.03;;;;;;;8.79;100.00;93893.53;5088697;28;20044;-59
2023/09/20 03:37:43;;;;;;;9.15;4.40;;;;;;;8.60;100.00;93887.44;5087711;28;20510;-58
2023/09/20 03:40:16;;;;;;;13.60;4.57;;;;;;;8.54;100.00;93891.03;5088171;28;20047;-59
2023/09/20 03:42:44;;;;;;;12.97;5.17;;;;;;;8.54;100.00;93882.81;5087991;28;20056;-58
2023/09/20 03:45:13;;;;;;;10.18;4.97;;;;;;;8.46;100.00;93879.34;5088858;28;20036;-59
2023/09/20 03:47:41;;;;;;;9.85;4.72;;;;;;;8.55;100.00;93878.88;5087852;28;20062;-58
2023/09/20 03:50:12;;;;;;;10.30;5.15;;;;;;;8.56;100.00;93881.22;5088462;28;20039;-59
2023/09/20 03:52:39;;;;;;;10.25;5.20;;;;;;;8.56;100.00;93875.00;5087824;28;20036;-58
2023/09/20 03:55:06;;;;;;;9.70;5.10;;;;;;;8.32;100.00;93876.69;5088734;28;20050;-59
2023/09/20 03:57:33;;;;;;;9.75;4.60;;;;;;;8.23;100.00;93874.44;5087991;28;20480;-59
2023/09/20 04:00:03;;;;;;;10.00;5.25;;;;;;;8.24;100.00;93875.97;5087573;28;20514;-59
2023/09/20 04:02:30;;;;;;;8.88;5.10;;;;;;;8.30;100.00;93877.09;5088122;28;20039;-59
2023/09/20 04:04:57;;;;;;;9.07;5.25;;;;;;;8.38;100.00;93886.81;5087601;28;20048;-59
2023/09/20 04:07:24;;;;;;;9.57;5.30;;;;;;;8.44;100.00;93878.22;5088356;28;20044;-59
2023/09/20 04:09:50;;;;;;;9.65;5.47;;;;;;;8.43;100.00;93874.72;5087309;28;20512;-59
2023/09/20 04:12:17;;;;;;;9.88;5.60;;;;;;;8.26;100.00;93870.88;5088452;28;20396;-59
2023/09/20 04:14:44;;;;;;;10.57;5.55;;;;;;;8.32;100.00;93863.03;5087188;28;20040;-58
2023/09/20 04:17:11;;;;;;;10.20;4.88;;;;;;;8.37;100.00;93863.38;5088249;28;20054;-59
2023/09/20 04:19:39;;;;;;;11.97;5.87;;;;;;;8.31;100.00;93856.00;5086935;28;20116;-59
2023/09/20 04:22:06;;;;;;;9.18;5.25;;;;;;;8.35;100.00;93860.28;5088025;28;20044;-59
2023/09/20 04:24:33;;;;;;;11.23;6.35;;;;;;;8.35;100.00;93865.75;5083179;28;20040;-58
2023/09/20 04:27:03;;;;;;;13.23;6.88;;;;;;;8.22;100.00;93864.66;5076580;28;20405;-57
2023/09/20 04:29:31;;;;;;;17.27;7.00;;;;;;;8.09;100.00;93855.38;5095341;28;20043;-58
2023/09/20 04:31:58;;;;;;;14.63;6.37;;;;;;;8.11;100.00;93869.41;5094621;28;20051;-58
2023/09/20 04:34:25;;;;;;;13.45;6.43;;;;;;;8.16;100.00;93866.28;5092226;28;20040;-59
2023/09/20 04:36:52;;;;;;;14.32;6.70;;;;;;;8.18;100.00;93852.97;5091412;28;20055;-59
2023/09/20 04:39:24;;;;;;;11.80;6.10;;;;;;;8.20;100.00;93858.81;5091790;28;20543;-59
2023/09/20 04:41:50;;;;;;;12.95;5.85;;;;;;;8.22;100.00;93859.19;5090907;28;20046;-58
2023/09/20 04:44:18;;;;;;;11.43;5.60;;;;;;;8.27;100.00;93853.31;5091691;28;20046;-59
2023/09/20 04:46:47;;;;;;;11.88;5.78;;;;;;;8.23;100.00;93855.28;5091120;28;20036;-59
2023/09/20 04:49:14;;;;;;;12.40;6.00;;;;;;;8.13;100.00;93847.91;5091848;28;20042;-59
2023/09/20 04:51:42;;;;;;;11.38;5.88;;;;;;;8.12;100.00;93862.78;5088264;28;20045;-59
2023/09/20 04:54:09;;;;;;;11.45;6.05;;;;;;;8.12;100.00;93857.31;5082572;28;20047;-59
2023/09/20 04:56:36;;;;;;;11.47;5.70;;;;;;;8.14;100.00;93863.94;5090737;28;20067;-58
2023/09/20 04:59:04;;;;;;;12.45;5.60;;;;;;;8.19;100.00;93862.75;5096515;28;20046;-59
2023/09/20 05:01:31;;;;;;;13.70;5.55;;;;;;;8.19;100.00;93852.59;5090502;28;20040;-58
2023/09/20 05:03:58;;;;;;;12.65;5.97;;;;;;;8.18;100.00;93861.19;5091201;27;20039;-59
2023/09/20 05:06:26;;;;;;;12.13;5.47;;;;;;;8.24;100.00;93861.53;5091187;28;20044;-59
2023/09/20 05:08:53;;;;;;;11.43;5.97;;;;;;;8.22;100.00;93856.47;5090967;28;20058;-59
2023/09/20 05:11:20;;;;;;;12.98;6.28;;;;;;;8.26;100.00;93857.22;5091214;28;20032;-59
2023/09/20 05:13:47;;;;;;;13.32;5.88;;;;;;;8.31;100.00;93861.47;5090124;28;20695;-58
2023/09/20 05:16:14;;;;;;;12.32;5.72;;;;;;;8.25;100.00;93861.13;5091260;28;20040;-59
2023/09/20 05:18:40;;;;;;;13.40;6.18;;;;;;;8.12;100.00;93860.81;5090409;28;20039;-58
2023/09/20 05:21:09;;;;;;;12.63;5.80;;;;;;;7.89;100.00;93869.56;5090920;28;20481;-59
2023/09/20 05:23:36;;;;;;;10.75;5.57;;;;;;;8.01;100.00;93876.53;5090445;28;20480;-58
2023/09/20 05:26:03;;;;;;;13.10;6.10;;;;;;;8.12;100.00;93862.78;5090959;28;20040;-59
2023/09/20 05:28:30;;;;;;;11.73;5.50;;;;;;;8.22;100.00;93861.94;5090630;28;20044;-59
2023/09/20 05:30:57;;;;;;;11.63;5.75;;;;;;;8.24;100.00;93869.72;5089996;28;20378;-58
2023/09/20 05:33:24;;;;;;;10.73;5.83;;;;;;;8.22;100.00;93867.41;5090889;28;20093;-59
2023/09/20 05:35:51;;;;;;;10.80;4.97;;;;;;;8.16;100.00;93869.00;5089576;28;20524;-58
2023/09/20 05:38:21;;;;;;;12.95;5.55;;;;;;;8.21;100.00;93868.59;5090750;28;20442;-59
2023/09/20 05:40:48;;;;;;;10.80;5.32;;;;;;;8.34;100.00;93866.13;5089391;28;20145;-58
2023/09/20 05:43:18;;;;;;;9.93;5.22;;;;;;;8.40;100.00;93867.25;5090896;28;20050;-59
2023/09/20 05:45:45;;;;;;;11.00;5.20;;;;;;;8.44;100.00;93862.56;5088077;28;20044;-58
2023/09/20 05:48:12;;;;;;;11.15;5.53;;;;;;;8.51;100.00;93868.00;5090934;28;20036;-58
2023/09/20 05:50:40;;;;;;;11.13;5.20;;;;;;;8.59;100.00;93857.75;5088350;28;20057;-59
2023/09/20 05:53:11;;;;;;;10.75;5.75;;;;;;;8.68;100.00;93860.81;5091105;28;20050;-59
2023/09/20 05:55:38;;;;;;;10.40;5.53;;;;;;;8.67;100.00;93853.81;5077593;28;20105;-59
2023/09/20 05:58:06;;;;;;;11.27;5.70;;;;;;;8.74;100.00;93850.97;5091207;28;20485;-59
2023/09/20 06:00:35;;;;;;;10.77;5.13;;;;;;;8.79;100.00;93834.13;5090733;28;20045;-59
2023/09/20 06:03:04;;;;;;;11.15;5.75;;;;;;;8.81;100.00;93836.44;5088677;28;20252;-59
2023/09/20 06:05:34;;;;;;;14.23;6.53;;;;;;;8.80;100.00;93834.91;5074405;28;20047;-59
2023/09/20 06:08:01;;;;;;;14.10;6.72;;;;;;;8.88;100.00;93836.38;5075395;28;20887;-59
2023/09/20 06:10:28;;;;;;;15.03;6.47;;;;;;;8.97;100.00;93838.63;5094322;28;20032;-59
2023/09/20 06:12:55;;;;;;;14.50;6.90;;;;;;;8.71;100.00;93842.78;5098835;28;20044;-59
2023/09/20 06:15:22;;;;;;;19.50;7.50;;;;;;;8.64;100.00;93846.38;5090463;28;20553;-59
2023/09/20 06:17:49;;;;;;;15.77;7.07;;;;;;;8.84;100.00;93843.09;5077170;28;20036;-59
2023/09/20 06:20:19;;;;;;;17.83;7.55;;;;;;;8.93;100.00;93837.91;5090244;28;20043;-59
2023/09/20 06:22:48;;;;;;;19.50;7.57;;;;;;;8.97;100.00;93833.97;5086837;28;20077;-54
2023/09/20 06:25:15;;;;;;;17.90;7.93;;;;;;;9.10;100.00;93828.72;5090628;28;20663;-60
2023/09/20 06:27:42;;;;;;;16.73;7.88;;;;;;;9.31;100.00;93835.13;5090095;28;20075;-59
2023/09/20 06:30:12;;;;;;;17.10;7.65;;;;;;;9.42;100.00;93824.03;5086854;28;20033;-57
2023/09/20 06:32:44;;;;;;;19.10;7.88;;;;;;;9.54;100.00;93820.78;5092866;28;20043;-56
2023/09/20 06:35:12;;;;;;;16.90;7.40;;;;;;;9.68;100.00;93823.34;5090180;28;20050;-57
2023/09/20 06:37:39;;;;;;;18.17;7.07;;;;;;;9.70;100.00;93820.16;5089521;28;20400;-57
2023/09/20 06:40:33;;;;;;;15.98;7.05;;;;;;;9.83;100.00;93818.41;5090249;28;20046;-57
2023/09/20 06:43:03;;;;;;;14.93;6.22;;;;;;;10.03;100.00;93804.06;5090174;28;20606;-57
2023/09/20 06:45:30;;;;;;;18.10;7.43;;;;;;;10.07;100.00;93813.78;5090376;28;20408;-58
2023/09/20 06:47:57;;;;;;;15.03;6.80;;;;;;;10.09;100.00;93811.38;5088736;28;20040;-57
2023/09/20 06:50:24;;;;;;;15.25;7.25;;;;;;;10.02;100.00;93807.97;5090246;28;20036;-57
2023/09/20 06:52:53;;;;;;;17.70;7.05;;;;;;;9.94;100.00;93816.31;5089372;28;20066;-57
2023/09/20 06:55:20;;;;;;;15.07;6.70;;;;;;;9.97;100.00;93807.25;5090480;28;20046;-57
2023/09/20 06:57:49;;;;;;;12.23;6.05;;;;;;;10.16;100.00;93803.06;5087347;28;20052;-57
2023/09/20 07:00:25;;;;;;;13.33;6.73;;;;;;;10.30;100.00;93799.34;5078521;28;20052;-57
2023/09/20 07:02:57;;;;;;;13.60;6.13;;;;;;;10.58;100.00;93791.81;5076275;28;20052;-57
2023/09/20 07:05:28;;;;;;;13.02;5.97;;;;;;;10.83;100.00;93799.63;5089585;28;20052;-57
2023/09/20 07:07:55;;;;;;;12.48;6.20;;;;;;;11.08;100.00;93788.16;5088997;28;20044;-58
2023/09/20 07:10:22;;;;;;;13.93;6.10;;;;;;;12.28;100.00;93784.47;5089925;28;20048;-58
2023/09/20 07:12:55;;;;;;;12.73;5.30;;;;;;;15.57;100.00;93764.72;5089685;28;20469;-59
2023/09/20 07:15:25;;;;;;;9.70;4.90;;;;;;;19.05;100.00;93768.41;5089661;28;20044;-59
2023/09/20 07:18:11;;;;;;;9.02;4.78;;;;;;;20.70;94.55;93768.78;5089524;28;20518;-59
2023/09/20 07:20:42;;;;;;;8.55;4.38;;;;;;;22.78;81.15;93771.47;5088952;28;20043;-58
2023/09/20 07:23:13;;;;;;;8.48;4.80;;;;;;;22.84;75.57;93770.25;5089845;28;20048;-59
2023/09/20 07:25:41;;;;;;;7.03;3.90;;;;;;;22.98;73.16;93781.75;5089117;28;20277;-59
2023/09/20 07:28:09;;;;;;;6.78;3.30;;;;;;;22.11;79.36;93786.44;5089546;28;20048;-59
2023/09/20 07:30:40;;;;;;;8.10;3.80;;;;;;;23.75;74.36;93770.66;5089164;28;20040;-59
2023/09/20 07:33:11;;;;;;;5.60;3.38;;;;;;;25.16;65.06;93765.84;5089393;28;20044;-60
2023/09/20 07:35:48;;;;;;;7.10;3.33;;;;;;;26.40;58.91;93765.25;5089067;28;20040;-59
2023/09/20 07:38:26;;;;;;;6.63;3.00;;;;;;;25.42;60.14;93762.72;5088911;28;20032;-60
2023/09/20 07:41:09;;;;;;;4.13;2.30;;;;;;;27.78;55.70;93759.22;5088580;28;21446;-60
2023/09/20 07:43:41;;;;;;;5.75;2.70;;;;;;;27.41;50.21;93751.50;5089325;28;20032;-59
2023/09/20 07:46:09;;;;;;;4.43;2.28;;;;;;;29.20;47.38;93749.34;5089008;28;20051;-60
2023/09/20 07:48:37;;;;;;;5.15;2.70;;;;;;;28.34;48.46;93752.03;5088880;28;20063;-60
2023/09/20 07:51:10;;;;;;;6.97;2.80;;;;;;;27.93;49.12;93747.53;5089204;28;20048;-60
2023/09/20 07:53:41;;;;;;;5.40;2.90;;;;;;;27.63;48.50;93751.22;5088888;28;20573;-59
2023/09/20 07:56:11;;;;;;;4.47;3.10;;;;;;;28.54;48.48;93753.56;5087835;28;20050;-60
2023/09/20 07:58:40;;;;;;;5.72;3.05;;;;;;;29.97;45.38;93759.63;5077865;28;20097;-60
2023/09/20 08:01:11;;;;;;;5.32;2.80;;;;;;;28.90;45.50;93758.84;5069040;28;20481;-60
2023/09/20 08:04:17;;;;;;;6.83;3.17;;;;;;;26.93;51.16;93759.41;5084814;28;20071;-59
2023/09/20 08:06:35;;;;;;;6.15;3.10;;;;;;;27.76;50.44;93756.19;5084165;28;20043;-60
2023/09/20 08:09:03;;;;;;;6.35;3.33;;;;;;;28.85;48.06;93746.34;5088285;28;20846;-60
2023/09/20 08:11:31;;;;;;;8.35;2.75;;;;;;;29.39;46.18;93746.41;5089243;28;20036;-60
2023/09/20 08:14:00;;;;;;;5.43;2.70;;;;;;;30.95;43.61;93754.78;5088742;28;20451;-60
2023/09/20 08:16:31;;;;;;;5.43;2.47;;;;;;;30.88;42.50;93752.66;5089107;28;20044;-60
2023/09/20 08:21:47;;;;;;;4.68;2.13;;;;;;;32.16;39.75;93763.84;5088637;28;20048;-60
2023/09/20 09:00:31;;;;;;;4.50;1.75;;;;;;;32.89;37.38;93735.19;5068252;28;20649;-58
2023/09/20 09:02:59;;;;;;;3.58;1.70;;;;;;;28.27;44.40;93741.38;5085444;28;20036;-57
2023/09/20 09:05:28;;;;;;;3.97;1.73;;;;;;;31.37;40.46;93737.69;5076486;28;20471;-58
2023/09/20 09:08:00;;;;;;;3.35;1.80;;;;;;;29.33;43.25;93726.72;5076187;28;20051;-57
2023/09/20 09:10:27;;;;;;;5.10;1.80;;;;;;;31.11;39.56;93724.50;5077476;28;20045;-59
2023/09/20 09:12:55;;;;;;;4.93;1.77;;;;;;;28.37;44.46;93728.41;5091058;28;20040;-58
2023/09/20 09:15:27;;;;;;;3.45;1.70;;;;;;;28.90;44.60;93724.97;5092041;28;20036;-58
2023/09/20 09:17:54;;;;;;;4.53;1.80;;;;;;;28.45;46.27;93715.19;5091465;28;20040;-58
2023/09/20 09:20:22;;;;;;;3.20;1.65;;;;;;;28.50;45.67;93707.94;5091972;28;20032;-58
2023/09/20 09:22:49;;;;;;;4.17;1.83;;;;;;;28.99;44.65;93710.41;5091169;28;20073;-58
2023/09/20 09:25:29;;;;;;;3.70;1.80;;;;;;;29.31;43.79;93700.31;5092079;28;20040;-59
2023/09/20 09:27:56;;;;;;;4.38;1.85;;;;;;;27.29;48.64;93717.06;5091507;28;20062;-58
2023/09/20 09:30:23;;;;;;;2.60;1.70;;;;;;;28.18;47.46;93707.94;5091996;28;20327;-59
2023/09/20 09:32:52;;;;;;;3.33;1.70;;;;;;;29.32;44.74;93699.78;5091282;28;20062;-58
2023/09/20 09:35:19;;;;;;;3.90;1.60;;;;;;;27.68;47.60;93710.16;5091810;28;20346;-59
2023/09/20 09:37:50;;;;;;;3.42;1.83;;;;;;;27.40;49.22;93708.47;5089783;28;20670;-58
2023/09/20 09:40:17;;;;;;;2.85;1.67;;;;;;;28.31;49.72;93710.03;5091914;28;20044;-58
2023/09/20 09:42:45;;;;;;;4.28;1.60;;;;;;;28.32;47.48;93705.91;5090998;28;20036;-58
2023/09/20 09:45:12;;;;;;;3.30;1.55;;;;;;;27.78;48.97;93704.91;5091651;28;20044;-58
2023/09/20 09:47:41;;;;;;;3.20;1.60;;;;;;;28.76;46.86;93707.22;5090981;28;20039;-59
2023/09/20 09:50:09;;;;;;;4.82;1.85;;;;;;;30.99;43.53;93698.53;5091202;28;20404;-59
2023/09/20 09:52:39;;;;;;;3.83;1.50;;;;;;;32.48;39.13;93697.28;5090712;28;20036;-59
2023/09/20 09:55:07;;;;;;;4.35;1.58;;;;;;;31.18;39.18;93700.34;5091325;28;20032;-60
2023/09/20 09:57:34;;;;;;;2.80;1.58;;;;;;;29.23;42.98;93703.78;5091485;28;20044;-60
2023/09/20 10:00:03;;;;;;;2.77;1.40;;;;;;;30.50;42.56;93701.31;5090005;28;21074;-60
2023/09/20 10:02:31;;;;;;;3.45;1.60;;;;;;;31.48;38.98;93693.34;5089629;28;20044;-60
2023/09/20 10:05:02;;;;;;;3.22;1.52;;;;;;;31.18;40.86;93691.84;5090740;28;20108;-60
2023/09/20 10:07:33;;;;;;;4.28;1.50;;;;;;;31.82;38.89;93693.13;5090516;28;20047;-60
2023/09/20 10:10:12;;;;;;;3.72;1.95;;;;;;;31.66;39.65;93686.63;5090646;28;20044;-60
2023/09/20 10:12:44;;;;;;;3.00;1.40;;;;;;;33.34;36.16;93676.78;5089293;28;20052;-58
2023/09/20 10:15:14;;;;;;;2.40;1.33;;;;;;;31.62;37.53;93683.41;5090976;28;20040;-58
2023/09/20 10:17:50;;;;;;;3.83;1.50;;;;;;;30.97;38.60;93683.38;5090223;28;20048;-57
2023/09/20 10:20:18;;;;;;;3.42;1.50;;;;;;;30.61;38.09;93673.47;5090790;28;20116;-59
2023/09/20 10:22:51;;;;;;;3.38;1.45;;;;;;;29.45;41.07;93665.06;5089661;28;20101;-59
2023/09/20 10:25:34;;;;;;;3.70;1.50;;;;;;;30.41;39.54;93663.69;5090704;28;20044;-58
2023/09/20 10:28:08;;;;;;;3.03;1.40;;;;;;;29.16;42.01;93658.50;5089850;28;20281;-59
2023/09/20 10:31:01;;;;;;;2.63;1.40;;;;;;;30.58;39.85;93659.66;5078347;28;20036;-59
2023/09/20 10:33:48;;;;;;;3.88;1.40;;;;;;;29.83;41.39;93659.13;5089699;28;20069;-59
2023/09/20 10:36:24;;;;;;;2.60;1.50;;;;;;;30.87;39.81;93654.78;5089762;28;20374;-59
2023/09/20 10:39:12;;;;;;;2.67;1.50;;;;;;;31.02;39.62;93657.72;5080521;28;20052;-60
2023/09/20 10:41:40;;;;;;;3.33;1.60;;;;;;;30.68;39.41;93655.00;5071563;28;20043;-58
2023/09/20 10:44:07;;;;;;;3.83;1.45;;;;;;;31.00;39.08;93651.09;5090636;28;20051;-59
2023/09/20 10:46:39;;;;;;;2.97;1.30;;;;;;;32.36;35.75;93645.00;5090287;28;20400;-60
2023/09/20 10:49:06;;;;;;;3.15;1.40;;;;;;;30.76;39.26;93646.56;5089716;28;20141;-60
2023/09/20 10:51:40;;;;;;;3.80;1.57;;;;;;;31.16;39.12;93652.69;5089093;28;20036;-60
2023/09/20 10:54:20;;;;;;;3.30;1.50;;;;;;;32.57;36.92;93637.06;5089067;28;20066;-60
2023/09/20 10:57:10;;;;;;;3.50;1.50;;;;;;;29.29;40.77;93647.16;5089662;28;20051;-59
2023/09/20 10:59:41;;;;;;;3.22;1.60;;;;;;;28.71;42.58;93648.03;5089541;28;20046;-59
2023/09/20 11:02:17;;;;;;;3.65;1.50;;;;;;;27.71;45.39;93638.63;5089849;28;20388;-60
2023/09/20 11:04:46;;;;;;;5.17;1.60;;;;;;;30.02;42.23;93641.97;5089698;28;20055;-60
2023/09/20 11:07:14;;;;;;;3.00;1.55;;;;;;;31.20;39.37;93636.09;5089870;28;20036;-60
2023/09/20 11:09:42;;;;;;;2.85;1.40;;;;;;;32.49;36.78;93627.00;5089385;28;20043;-60
2023/09/20 11:12:11;;;;;;;4.03;1.80;;;;;;;29.52;41.00;93624.84;5089862;28;20710;-60
2023/09/20 11:14:44;;;;;;;3.78;1.50;;;;;;;27.64;45.82;93622.31;5089471;28;20047;-57
2023/09/20 11:17:16;;;;;;;3.50;1.70;;;;;;;27.42;47.13;93614.94;5089677;28;20043;-57
2023/09/20 11:19:43;;;;;;;5.55;1.77;;;;;;;26.35;49.20;93624.59;5088934;28;20044;-59
2023/09/20 11:22:10;;;;;;;3.97;1.98;;;;;;;25.79;50.70;93625.81;5089491;28;20043;-59
2023/09/20 11:24:40;;;;;;;4.03;1.73;;;;;;;26.05;51.34;93609.28;5089220;28;20050;-59
2023/09/20 11:27:08;;;;;;;3.50;1.90;;;;;;;24.61;56.91;93604.72;5089723;28;20036;-59
2023/09/20 11:29:37;;;;;;;3.43;1.60;;;;;;;23.70;66.93;93595.66;5089918;28;20409;-59
2023/09/20 11:32:09;;;;;;;3.50;1.88;;;;;;;22.87;75.36;93600.59;5088325;28;20786;-59
2023/09/20 11:34:50;;;;;;;4.35;1.70;;;;;;;22.82;79.61;93595.72;5088899;28;20044;-59
2023/09/20 11:37:21;;;;;;;4.07;1.75;;;;;;;23.16;78.46;93587.47;5089606;28;20051;-59
2023/09/20 11:39:50;;;;;;;3.65;1.90;;;;;;;22.51;79.13;93598.16;5071003;28;20053;-59
2023/09/20 11:42:24;;;;;;;3.53;1.80;;;;;;;22.97;80.65;93590.69;5088226;28;20040;-59
2023/09/20 11:44:58;;;;;;;3.20;1.80;;;;;;;22.58;83.85;93582.16;5089010;28;20050;-59
2023/09/20 11:47:43;;;;;;;3.80;1.92;;;;;;;22.38;84.55;93586.69;5089124;28;20040;-59
2023/09/20 11:50:14;;;;;;;3.22;1.73;;;;;;;22.91;79.03;93578.72;5089262;28;20058;-59
2023/09/20 11:52:46;;;;;;;3.90;1.80;;;;;;;22.85;81.66;93578.72;5088973;28;20044;-58
2023/09/20 11:55:14;;;;;;;2.90;1.70;;;;;;;23.13;81.59;93573.22;5089522;28;20051;-59
2023/09/20 11:57:42;;;;;;;4.15;1.90;;;;;;;22.30;85.49;93577.22;5088854;28;20043;-59
2023/09/20 12:00:16;;;;;;;3.55;2.05;;;;;;;22.55;84.86;93564.38;5088679;28;20545;-59
2023/09/20 12:02:44;;;;;;;3.95;1.92;;;;;;;22.59;82.95;93558.53;5089072;28;20109;-59
2023/09/20 12:05:11;;;;;;;3.20;1.70;;;;;;;22.82;79.71;93564.97;5088840;28;20373;-59
2023/09/20 12:07:38;;;;;;;3.70;2.03;;;;;;;22.83;81.63;93558.09;5078041;28;20235;-59
2023/09/20 12:10:06;;;;;;;3.63;1.90;;;;;;;22.49;83.38;93560.78;5086727;28;20097;-59
2023/09/20 12:12:34;;;;;;;3.65;1.85;;;;;;;22.43;83.73;93557.97;5089403;28;20043;-59
2023/09/20 12:15:06;;;;;;;3.47;1.67;;;;;;;22.53;83.73;93561.31;5088847;28;20047;-59
2023/09/20 12:17:32;;;;;;;4.25;1.70;;;;;;;22.69;83.48;93554.25;5088980;28;20050;-59
2023/09/20 12:19:59;;;;;;;3.67;1.67;;;;;;;22.39;79.64;93545.50;5088660;28;20100;-59